sensor_id;sensor_type;location;lat;lon;timestamp;pressure;altitude;pressure_sealevel;temperature;humidity
78986;BME280;68384;55.750;48.746;2023-05-09T00:00:12;100593.38;;;3.38;54.15
78986;BME280;68384;55.750;48.746;2023-05-09T00:01:17;100611.09;;;3.46;53.93
78986;BME280;68384;55.750;48.746;2023-05-09T00:02:21;100605.88;;;3.45;53.67
78986;BME280;68384;55.750;48.746;2023-05-09T00:03:25;100617.78;;;3.44;54.09
78986;BME280;68384;55.750;48.746;2023-05-09T00:04:29;100609.13;;;3.42;53.94
78986;BME280;68384;55.750;48.746;2023-05-09T00:05:34;100612.34;;;3.40;53.79
78986;BME280;68384;55.750;48.746;2023-05-09T00:06:38;100620.69;;;3.37;53.77
78986;BME280;68384;55.750;48.746;2023-05-09T00:07:42;100621.78;;;3.41;53.88
78986;BME280;68384;55.750;48.746;2023-05-09T00:08:46;100625.16;;;3.40;54.07
78986;BME280;68384;55.750;48.746;2023-05-09T00:09:49;100625.16;;;3.40;53.75
78986;BME280;68384;55.750;48.746;2023-05-09T00:10:53;100624.03;;;3.36;54.38
78986;BME280;68384;55.750;48.746;2023-05-09T00:11:56;100621.34;;;3.35;54.88
78986;BME280;68384;55.750;48.746;2023-05-09T00:13:00;100609.88;;;3.30;54.65
78986;BME280;68384;55.750;48.746;2023-05-09T00:14:03;100617.56;;;3.30;54.54
78986;BME280;68384;55.750;48.746;2023-05-09T00:15:08;100622.47;;;3.27;54.66
78986;BME280;68384;55.750;48.746;2023-05-09T00:16:12;100622.47;;;3.27;54.78
78986;BME280;68384;55.750;48.746;2023-05-09T00:17:18;100617.91;;;3.23;55.11
78986;BME280;68384;55.750;48.746;2023-05-09T00:18:20;100620.34;;;3.21;55.15
78986;BME280;68384;55.750;48.746;2023-05-09T00:19:25;100622.03;;;3.21;55.51
78986;BME280;68384;55.750;48.746;2023-05-09T00:20:28;100623.47;;;3.17;55.17
78986;BME280;68384;55.750;48.746;2023-05-09T00:21:33;100629.38;;;3.16;55.38
78986;BME280;68384;55.750;48.746;2023-05-09T00:22:37;100622.47;;;3.15;55.18
78986;BME280;68384;55.750;48.746;2023-05-09T00:23:42;100623.16;;;3.12;55.05
78986;BME280;68384;55.750;48.746;2023-05-09T00:24:45;100624.00;;;3.13;55.17
78986;BME280;68384;55.750;48.746;2023-05-09T00:25:49;100612.91;;;3.12;55.26
78986;BME280;68384;55.750;48.746;2023-05-09T00:26:52;100624.91;;;3.13;54.96
78986;BME280;68384;55.750;48.746;2023-05-09T00:27:57;100629.25;;;3.14;54.77
78986;BME280;68384;55.750;48.746;2023-05-09T00:28:59;100628.38;;;3.14;54.83
78986;BME280;68384;55.750;48.746;2023-05-09T00:30:05;100624.16;;;3.14;54.90
78986;BME280;68384;55.750;48.746;2023-05-09T00:31:08;100625.91;;;3.15;55.02
78986;BME280;68384;55.750;48.746;2023-05-09T00:32:12;100625.13;;;3.16;55.08
78986;BME280;68384;55.750;48.746;2023-05-09T00:33:16;100619.25;;;3.17;55.15
78986;BME280;68384;55.750;48.746;2023-05-09T00:34:20;100632.06;;;3.17;54.96
78986;BME280;68384;55.750;48.746;2023-05-09T00:35:23;100626.03;;;3.17;54.83
78986;BME280;68384;55.750;48.746;2023-05-09T00:36:27;100623.56;;;3.18;54.74
78986;BME280;68384;55.750;48.746;2023-05-09T00:37:30;100626.03;;;3.17;54.58
78986;BME280;68384;55.750;48.746;2023-05-09T00:38:34;100626.94;;;3.17;54.26
78986;BME280;68384;55.750;48.746;2023-05-09T00:39:39;100631.16;;;3.17;54.33
78986;BME280;68384;55.750;48.746;2023-05-09T00:40:43;100624.38;;;3.17;53.84
78986;BME280;68384;55.750;48.746;2023-05-09T00:41:45;100623.47;;;3.17;53.83
78986;BME280;68384;55.750;48.746;2023-05-09T00:42:49;100626.13;;;3.18;54.04
78986;BME280;68384;55.750;48.746;2023-05-09T00:43:52;100625.38;;;3.19;53.77
78986;BME280;68384;55.750;48.746;2023-05-09T00:44:56;100632.28;;;3.21;53.86
78986;BME280;68384;55.750;48.746;2023-05-09T00:46:00;100628.94;;;3.22;54.02
78986;BME280;68384;55.750;48.746;2023-05-09T00:47:04;100634.03;;;3.22;54.02
78986;BME280;68384;55.750;48.746;2023-05-09T00:48:08;100632.38;;;3.22;53.75
78986;BME280;68384;55.750;48.746;2023-05-09T00:49:12;100629.81;;;3.22;53.92
78986;BME280;68384;55.750;48.746;2023-05-09T00:50:15;100631.47;;;3.22;53.73
78986;BME280;68384;55.750;48.746;2023-05-09T00:51:19;100632.38;;;3.22;53.85
78986;BME280;68384;55.750;48.746;2023-05-09T00:52:24;100630.59;;;3.21;53.89
78986;BME280;68384;55.750;48.746;2023-05-09T00:53:28;100632.28;;;3.21;54.12
78986;BME280;68384;55.750;48.746;2023-05-09T00:54:31;100632.28;;;3.21;53.78
78986;BME280;68384;55.750;48.746;2023-05-09T00:55:36;100629.72;;;3.21;54.06
78986;BME280;68384;55.750;48.746;2023-05-09T00:56:43;100625.91;;;3.15;53.76
78986;BME280;68384;55.750;48.746;2023-05-09T00:57:47;100630.50;;;3.19;54.01
78986;BME280;68384;55.750;48.746;2023-05-09T00:58:52;100635.84;;;3.23;53.89
78986;BME280;68384;55.750;48.746;2023-05-09T00:59:56;100631.63;;;3.23;53.89
78986;BME280;68384;55.750;48.746;2023-05-09T01:01:00;100635.16;;;3.25;53.64
78986;BME280;68384;55.750;48.746;2023-05-09T01:02:05;100629.16;;;3.25;53.46
78986;BME280;68384;55.750;48.746;2023-05-09T01:03:09;100637.97;;;3.28;53.32
78986;BME280;68384;55.750;48.746;2023-05-09T01:04:13;100630.16;;;3.27;53.33
78986;BME280;68384;55.750;48.746;2023-05-09T01:05:18;100637.28;;;3.31;53.19
78986;BME280;68384;55.750;48.746;2023-05-09T01:06:24;100636.53;;;3.32;52.98
78986;BME280;68384;55.750;48.746;2023-05-09T01:07:40;100629.59;;;3.31;53.16
78986;BME280;68384;55.750;48.746;2023-05-09T01:08:51;100640.19;;;3.35;53.09
78986;BME280;68384;55.750;48.746;2023-05-09T01:10:02;100624.72;;;3.34;53.02
78986;BME280;68384;55.750;48.746;2023-05-09T01:11:16;100633.38;;;3.36;53.34
78986;BME280;68384;55.750;48.746;2023-05-09T01:12:33;100634.50;;;3.39;53.03
78986;BME280;68384;55.750;48.746;2023-05-09T01:13:45;100641.41;;;3.40;53.11
78986;BME280;68384;55.750;48.746;2023-05-09T01:14:57;100638.16;;;3.43;52.90
78986;BME280;68384;55.750;48.746;2023-05-09T01:16:07;100640.72;;;3.43;53.11
78986;BME280;68384;55.750;48.746;2023-05-09T01:17:21;100639.06;;;3.43;52.99
78986;BME280;68384;55.750;48.746;2023-05-09T01:18:32;100640.88;;;3.44;53.18
78986;BME280;68384;55.750;48.746;2023-05-09T01:19:53;100640.97;;;3.46;54.57
78986;BME280;68384;55.750;48.746;2023-05-09T01:21:02;100647.44;;;3.41;54.61
78986;BME280;68384;55.750;48.746;2023-05-09T01:22:11;100643.75;;;3.37;54.66
78986;BME280;68384;55.750;48.746;2023-05-09T01:23:33;100648.00;;;3.37;54.59
78986;BME280;68384;55.750;48.746;2023-05-09T01:25:00;100649.53;;;3.35;54.61
78986;BME280;68384;55.750;48.746;2023-05-09T01:26:16;100651.91;;;3.32;54.76
78986;BME280;68384;55.750;48.746;2023-05-09T01:27:32;100655.31;;;3.32;54.89
78986;BME280;68384;55.750;48.746;2023-05-09T01:28:53;100650.09;;;3.31;55.00
78986;BME280;68384;55.750;48.746;2023-05-09T01:30:04;100648.22;;;3.28;55.00
78986;BME280;68384;55.750;48.746;2023-05-09T01:31:08;100649.88;;;3.28;55.06
78986;BME280;68384;55.750;48.746;2023-05-09T01:32:17;100638.03;;;3.18;55.18
78986;BME280;68384;55.750;48.746;2023-05-09T01:33:22;100652.88;;;3.22;55.67
78986;BME280;68384;55.750;48.746;2023-05-09T01:34:27;100653.78;;;3.23;55.60
78986;BME280;68384;55.750;48.746;2023-05-09T01:35:33;100653.88;;;3.24;55.82
78986;BME280;68384;55.750;48.746;2023-05-09T01:36:39;100660.13;;;3.28;55.77
78986;BME280;68384;55.750;48.746;2023-05-09T01:37:48;100654.22;;;3.29;56.33
78986;BME280;68384;55.750;48.746;2023-05-09T01:38:53;100657.03;;;3.32;57.10
78986;BME280;68384;55.750;48.746;2023-05-09T01:40:03;100660.59;;;3.34;57.66
78986;BME280;68384;55.750;48.746;2023-05-09T01:41:11;100659.91;;;3.36;58.23
78986;BME280;68384;55.750;48.746;2023-05-09T01:42:18;100659.13;;;3.37;57.98
78986;BME280;68384;55.750;48.746;2023-05-09T01:43:24;100661.91;;;3.40;58.11
78986;BME280;68384;55.750;48.746;2023-05-09T01:44:32;100657.91;;;3.44;58.03
78986;BME280;68384;55.750;48.746;2023-05-09T01:45:40;100661.47;;;3.46;58.11
78986;BME280;68384;55.750;48.746;2023-05-09T01:46:45;100654.00;;;3.49;57.83
78986;BME280;68384;55.750;48.746;2023-05-09T01:47:50;100661.16;;;3.53;57.61
78986;BME280;68384;55.750;48.746;2023-05-09T01:48:55;100657.91;;;3.55;56.90
78986;BME280;68384;55.750;48.746;2023-05-09T01:50:01;100659.81;;;3.58;56.90
78986;BME280;68384;55.750;48.746;2023-05-09T01:51:05;100662.59;;;3.61;56.78
78986;BME280;68384;55.750;48.746;2023-05-09T01:52:12;100666.16;;;3.63;56.82
78986;BME280;68384;55.750;48.746;2023-05-09T01:53:16;100664.72;;;3.66;56.83
78986;BME280;68384;55.750;48.746;2023-05-09T01:54:21;100659.56;;;3.66;56.34
78986;BME280;68384;55.750;48.746;2023-05-09T01:55:30;100654.78;;;3.71;56.45
78986;BME280;68384;55.750;48.746;2023-05-09T01:56:36;100656.56;;;3.72;56.29
78986;BME280;68384;55.750;48.746;2023-05-09T01:57:41;100659.56;;;3.78;56.13
78986;BME280;68384;55.750;48.746;2023-05-09T01:58:47;100657.19;;;3.81;55.63
78986;BME280;68384;55.750;48.746;2023-05-09T01:59:52;100662.56;;;3.84;55.67
78986;BME280;68384;55.750;48.746;2023-05-09T02:01:01;100659.44;;;3.88;55.63
78986;BME280;68384;55.750;48.746;2023-05-09T02:02:05;100664.13;;;3.94;55.59
78986;BME280;68384;55.750;48.746;2023-05-09T02:03:10;100661.78;;;3.97;55.40
78986;BME280;68384;55.750;48.746;2023-05-09T02:04:15;100660.19;;;3.99;55.46
78986;BME280;68384;55.750;48.746;2023-05-09T02:05:21;100667.44;;;4.04;55.26
78986;BME280;68384;55.750;48.746;2023-05-09T02:06:28;100667.66;;;4.07;55.37
78986;BME280;68384;55.750;48.746;2023-05-09T02:07:32;100667.88;;;4.10;55.32
78986;BME280;68384;55.750;48.746;2023-05-09T02:08:36;100662.97;;;4.13;54.99
78986;BME280;68384;55.750;48.746;2023-05-09T02:09:40;100666.63;;;4.17;55.10
78986;BME280;68384;55.750;48.746;2023-05-09T02:10:43;100665.16;;;4.20;55.22
78986;BME280;68384;55.750;48.746;2023-05-09T02:11:49;100669.75;;;4.24;55.06
78986;BME280;68384;55.750;48.746;2023-05-09T02:12:52;100662.34;;;4.29;55.10
78986;BME280;68384;55.750;48.746;2023-05-09T02:13:57;100670.50;;;4.35;54.23
78986;BME280;68384;55.750;48.746;2023-05-09T02:15:00;100653.88;;;4.30;54.13
78986;BME280;68384;55.750;48.746;2023-05-09T02:16:10;100664.31;;;4.45;54.22
78986;BME280;68384;55.750;48.746;2023-05-09T02:17:13;100667.84;;;4.47;54.75
78986;BME280;68384;55.750;48.746;2023-05-09T02:18:18;100671.66;;;4.52;54.38
78986;BME280;68384;55.750;48.746;2023-05-09T02:19:21;100667.50;;;4.54;54.76
78986;BME280;68384;55.750;48.746;2023-05-09T02:20:25;100664.34;;;4.58;52.73
78986;BME280;68384;55.750;48.746;2023-05-09T02:21:28;100666.34;;;4.62;53.05
78986;BME280;68384;55.750;48.746;2023-05-09T02:22:32;100673.38;;;4.64;53.89
78986;BME280;68384;55.750;48.746;2023-05-09T02:23:35;100666.22;;;4.60;55.09
78986;BME280;68384;55.750;48.746;2023-05-09T02:24:41;100668.34;;;4.66;55.18
78986;BME280;68384;55.750;48.746;2023-05-09T02:25:45;100670.44;;;4.71;54.87
78986;BME280;68384;55.750;48.746;2023-05-09T02:26:49;100669.66;;;4.72;55.44
78986;BME280;68384;55.750;48.746;2023-05-09T02:27:54;100679.16;;;4.73;55.25
78986;BME280;68384;55.750;48.746;2023-05-09T02:29:01;100672.53;;;4.77;55.61
78986;BME280;68384;55.750;48.746;2023-05-09T02:30:07;100668.28;;;4.77;55.27
78986;BME280;68384;55.750;48.746;2023-05-09T02:31:18;100669.47;;;4.82;55.78
78986;BME280;68384;55.750;48.746;2023-05-09T02:32:24;100670.97;;;4.79;55.89
78986;BME280;68384;55.750;48.746;2023-05-09T02:33:32;100667.81;;;4.83;56.44
78986;BME280;68384;55.750;48.746;2023-05-09T02:34:36;100665.94;;;4.80;56.89
78986;BME280;68384;55.750;48.746;2023-05-09T02:35:43;100670.63;;;4.86;56.54
78986;BME280;68384;55.750;48.746;2023-05-09T02:36:47;100667.59;;;4.91;55.79
78986;BME280;68384;55.750;48.746;2023-05-09T02:37:51;100672.72;;;4.91;56.83
78986;BME280;68384;55.750;48.746;2023-05-09T02:38:54;100674.59;;;4.94;55.53
78986;BME280;68384;55.750;48.746;2023-05-09T02:39:59;100667.09;;;4.97;55.27
78986;BME280;68384;55.750;48.746;2023-05-09T02:41:04;100677.00;;;5.04;55.47
78986;BME280;68384;55.750;48.746;2023-05-09T02:42:10;100682.25;;;5.06;56.12
78986;BME280;68384;55.750;48.746;2023-05-09T02:43:13;100672.06;;;5.07;55.59
78986;BME280;68384;55.750;48.746;2023-05-09T02:44:17;100675.75;;;5.11;55.26
78986;BME280;68384;55.750;48.746;2023-05-09T02:45:20;100676.84;;;5.14;54.77
78986;BME280;68384;55.750;48.746;2023-05-09T02:46:26;100682.19;;;5.17;54.82
78986;BME280;68384;55.750;48.746;2023-05-09T02:47:29;100683.94;;;5.18;54.61
78986;BME280;68384;55.750;48.746;2023-05-09T02:48:34;100675.66;;;5.22;54.38
78986;BME280;68384;55.750;48.746;2023-05-09T02:49:37;100682.56;;;5.23;54.64
78986;BME280;68384;55.750;48.746;2023-05-09T02:50:41;100681.00;;;5.25;55.28
78986;BME280;68384;55.750;48.746;2023-05-09T02:51:44;100687.34;;;5.30;55.17
78986;BME280;68384;55.750;48.746;2023-05-09T02:52:48;100684.28;;;5.36;55.13
78986;BME280;68384;55.750;48.746;2023-05-09T02:53:51;100673.69;;;5.31;54.44
78986;BME280;68384;55.750;48.746;2023-05-09T02:54:56;100688.63;;;5.37;55.46
78986;BME280;68384;55.750;48.746;2023-05-09T02:55:59;100686.94;;;5.37;55.28
78986;BME280;68384;55.750;48.746;2023-05-09T02:57:03;100689.72;;;5.40;54.87
78986;BME280;68384;55.750;48.746;2023-05-09T02:58:07;100689.16;;;5.44;54.54
78986;BME280;68384;55.750;48.746;2023-05-09T02:59:17;100691.81;;;5.46;54.39
78986;BME280;68384;55.750;48.746;2023-05-09T03:00:20;100697.16;;;5.49;53.80
78986;BME280;68384;55.750;48.746;2023-05-09T03:01:28;100690.63;;;5.54;53.81
78986;BME280;68384;55.750;48.746;2023-05-09T03:02:31;100692.63;;;5.58;53.68
78986;BME280;68384;55.750;48.746;2023-05-09T03:03:35;100695.19;;;5.58;53.99
78986;BME280;68384;55.750;48.746;2023-05-09T03:04:39;100700.44;;;5.60;53.41
78986;BME280;68384;55.750;48.746;2023-05-09T03:05:44;100697.06;;;5.61;53.18
78986;BME280;68384;55.750;48.746;2023-05-09T03:06:46;100697.28;;;5.64;53.81
78986;BME280;68384;55.750;48.746;2023-05-09T03:07:51;100688.75;;;5.65;54.08
78986;BME280;68384;55.750;48.746;2023-05-09T03:08:53;100687.00;;;5.64;54.38
78986;BME280;68384;55.750;48.746;2023-05-09T03:09:59;100697.84;;;5.73;54.66
78986;BME280;68384;55.750;48.746;2023-05-09T03:11:04;100683.31;;;5.73;54.82
78986;BME280;68384;55.750;48.746;2023-05-09T03:12:09;100686.88;;;5.75;54.05
78986;BME280;68384;55.750;48.746;2023-05-09T03:13:12;100697.47;;;5.80;54.74
78986;BME280;68384;55.750;48.746;2023-05-09T03:14:16;100689.75;;;5.80;55.19
78986;BME280;68384;55.750;48.746;2023-05-09T03:15:19;100695.69;;;5.79;53.79
78986;BME280;68384;55.750;48.746;2023-05-09T03:16:24;100687.28;;;5.81;54.48
78986;BME280;68384;55.750;48.746;2023-05-09T03:17:29;100692.03;;;5.88;54.26
78986;BME280;68384;55.750;48.746;2023-05-09T03:18:33;100688.38;;;5.85;55.62
78986;BME280;68384;55.750;48.746;2023-05-09T03:19:36;100691.03;;;5.86;53.87
78986;BME280;68384;55.750;48.746;2023-05-09T03:20:40;100695.66;;;5.92;54.38
78986;BME280;68384;55.750;48.746;2023-05-09T03:21:43;100695.50;;;6.02;54.74
78986;BME280;68384;55.750;48.746;2023-05-09T03:22:47;100689.84;;;6.07;55.62
78986;BME280;68384;55.750;48.746;2023-05-09T03:23:50;100698.34;;;6.06;54.85
78986;BME280;68384;55.750;48.746;2023-05-09T03:24:54;100692.50;;;6.09;55.28
78986;BME280;68384;55.750;48.746;2023-05-09T03:25:57;100702.78;;;6.09;55.90
78986;BME280;68384;55.750;48.746;2023-05-09T03:27:01;100699.00;;;6.17;54.12
78986;BME280;68384;55.750;48.746;2023-05-09T03:28:04;100695.25;;;6.12;55.82
78986;BME280;68384;55.750;48.746;2023-05-09T03:29:08;100686.56;;;6.10;55.43
78986;BME280;68384;55.750;48.746;2023-05-09T03:30:13;100703.47;;;6.20;54.05
78986;BME280;68384;55.750;48.746;2023-05-09T03:31:20;100694.44;;;6.26;52.79
78986;BME280;68384;55.750;48.746;2023-05-09T03:32:23;100694.94;;;6.34;53.69
78986;BME280;68384;55.750;48.746;2023-05-09T03:33:29;100689.38;;;6.28;54.29
78986;BME280;68384;55.750;48.746;2023-05-09T03:34:34;100689.25;;;6.39;53.39
78986;BME280;68384;55.750;48.746;2023-05-09T03:35:39;100689.25;;;6.39;53.37
78986;BME280;68384;55.750;48.746;2023-05-09T03:36:43;100690.91;;;6.52;52.43
78986;BME280;68384;55.750;48.746;2023-05-09T03:37:49;100696.94;;;6.52;51.20
78986;BME280;68384;55.750;48.746;2023-05-09T03:38:51;100699.66;;;6.41;50.87
78986;BME280;68384;55.750;48.746;2023-05-09T03:39:57;100691.78;;;6.52;50.82
78986;BME280;68384;55.750;48.746;2023-05-09T03:41:00;100699.13;;;6.46;51.13
78986;BME280;68384;55.750;48.746;2023-05-09T03:42:06;100700.22;;;6.50;52.62
78986;BME280;68384;55.750;48.746;2023-05-09T03:43:09;100694.84;;;6.60;50.93
78986;BME280;68384;55.750;48.746;2023-05-09T03:44:13;100700.28;;;6.64;48.90
78986;BME280;68384;55.750;48.746;2023-05-09T03:45:16;100694.63;;;6.70;49.40
78986;BME280;68384;55.750;48.746;2023-05-09T03:46:21;100691.34;;;6.72;49.92
78986;BME280;68384;55.750;48.746;2023-05-09T03:47:24;100697.28;;;6.71;48.92
78986;BME280;68384;55.750;48.746;2023-05-09T03:48:29;100694.09;;;6.75;49.75
78986;BME280;68384;55.750;48.746;2023-05-09T03:49:33;100693.72;;;6.69;50.09
78986;BME280;68384;55.750;48.746;2023-05-09T03:50:37;100703.41;;;6.73;50.93
78986;BME280;68384;55.750;48.746;2023-05-09T03:51:41;100693.22;;;6.75;51.66
78986;BME280;68384;55.750;48.746;2023-05-09T03:52:48;100696.31;;;6.69;48.96
78986;BME280;68384;55.750;48.746;2023-05-09T03:53:52;100691.53;;;6.75;47.99
78986;BME280;68384;55.750;48.746;2023-05-09T03:54:57;100696.06;;;6.80;47.83
78986;BME280;68384;55.750;48.746;2023-05-09T03:56:00;100700.50;;;6.82;47.03
78986;BME280;68384;55.750;48.746;2023-05-09T03:57:07;100702.66;;;6.89;45.70
78986;BME280;68384;55.750;48.746;2023-05-09T03:58:10;100709.31;;;6.86;44.08
78986;BME280;68384;55.750;48.746;2023-05-09T03:59:16;100708.69;;;6.90;44.83
78986;BME280;68384;55.750;48.746;2023-05-09T04:00:20;100700.28;;;6.92;44.63
78986;BME280;68384;55.750;48.746;2023-05-09T04:01:35;100703.13;;;6.97;45.25
78986;BME280;68384;55.750;48.746;2023-05-09T04:02:42;100714.13;;;6.94;45.30
78986;BME280;68384;55.750;48.746;2023-05-09T04:03:56;100713.50;;;6.98;45.99
78986;BME280;68384;55.750;48.746;2023-05-09T04:05:01;100702.66;;;7.04;46.23
78986;BME280;68384;55.750;48.746;2023-05-09T04:06:05;100709.00;;;7.09;44.93
78986;BME280;68384;55.750;48.746;2023-05-09T04:07:12;100702.53;;;7.15;44.38
78986;BME280;68384;55.750;48.746;2023-05-09T04:08:16;100703.78;;;7.22;43.74
78986;BME280;68384;55.750;48.746;2023-05-09T04:09:19;100719.25;;;7.22;40.30
78986;BME280;68384;55.750;48.746;2023-05-09T04:10:23;100706.53;;;7.25;40.62
78986;BME280;68384;55.750;48.746;2023-05-09T04:11:27;100706.13;;;7.32;40.38
78986;BME280;68384;55.750;48.746;2023-05-09T04:12:33;100709.97;;;7.39;40.50
78986;BME280;68384;55.750;48.746;2023-05-09T04:13:36;100705.59;;;7.38;40.51
78986;BME280;68384;55.750;48.746;2023-05-09T04:14:49;100710.22;;;7.43;40.18
78986;BME280;68384;55.750;48.746;2023-05-09T04:15:53;100707.72;;;7.45;41.29
78986;BME280;68384;55.750;48.746;2023-05-09T04:16:57;100705.31;;;7.48;40.80
78986;BME280;68384;55.750;48.746;2023-05-09T04:18:02;100703.09;;;7.54;41.70
78986;BME280;68384;55.750;48.746;2023-05-09T04:19:07;100711.09;;;7.58;41.80
78986;BME280;68384;55.750;48.746;2023-05-09T04:20:12;100714.56;;;7.59;41.41
78986;BME280;68384;55.750;48.746;2023-05-09T04:21:16;100718.50;;;7.52;40.27
78986;BME280;68384;55.750;48.746;2023-05-09T04:22:23;100717.25;;;7.60;40.07
78986;BME280;68384;55.750;48.746;2023-05-09T04:23:26;100712.28;;;7.49;39.36
78986;BME280;68384;55.750;48.746;2023-05-09T04:24:32;100718.59;;;7.54;40.24
78986;BME280;68384;55.750;48.746;2023-05-09T04:25:35;100710.41;;;7.46;39.51
78986;BME280;68384;55.750;48.746;2023-05-09T04:26:40;100709.69;;;7.49;38.83
78986;BME280;68384;55.750;48.746;2023-05-09T04:27:46;100705.75;;;7.55;39.23
78986;BME280;68384;55.750;48.746;2023-05-09T04:28:50;100715.28;;;7.56;39.60
78986;BME280;68384;55.750;48.746;2023-05-09T04:29:54;100711.63;;;7.53;40.19
78986;BME280;68384;55.750;48.746;2023-05-09T04:30:58;100707.19;;;7.50;41.19
78986;BME280;68384;55.750;48.746;2023-05-09T04:32:02;100701.66;;;7.59;40.54
78986;BME280;68384;55.750;48.746;2023-05-09T04:33:06;100707.97;;;7.64;39.57
78986;BME280;68384;55.750;48.746;2023-05-09T04:34:10;100706.75;;;7.57;39.30
78986;BME280;68384;55.750;48.746;2023-05-09T04:35:14;100703.66;;;7.63;38.66
78986;BME280;68384;55.750;48.746;2023-05-09T04:36:22;100705.69;;;7.68;38.66
78986;BME280;68384;55.750;48.746;2023-05-09T04:37:26;100710.38;;;7.75;38.95
78986;BME280;68384;55.750;48.746;2023-05-09T04:38:29;100711.72;;;7.69;39.34
78986;BME280;68384;55.750;48.746;2023-05-09T04:39:34;100711.19;;;7.60;39.03
78986;BME280;68384;55.750;48.746;2023-05-09T04:40:46;100705.69;;;7.68;39.32
78986;BME280;68384;55.750;48.746;2023-05-09T04:41:50;100708.78;;;7.77;39.25
78986;BME280;68384;55.750;48.746;2023-05-09T04:42:54;100709.59;;;7.76;37.71
78986;BME280;68384;55.750;48.746;2023-05-09T04:44:01;100711.09;;;7.73;37.61
78986;BME280;68384;55.750;48.746;2023-05-09T04:45:06;100714.22;;;7.67;36.25
78986;BME280;68384;55.750;48.746;2023-05-09T04:46:09;100707.81;;;7.61;36.93
78986;BME280;68384;55.750;48.746;2023-05-09T04:47:13;100700.69;;;7.57;35.82
78986;BME280;68384;55.750;48.746;2023-05-09T04:48:16;100704.34;;;7.60;36.34
78986;BME280;68384;55.750;48.746;2023-05-09T04:49:21;100717.97;;;7.58;36.66
78986;BME280;68384;55.750;48.746;2023-05-09T04:50:24;100720.09;;;7.50;36.09
78986;BME280;68384;55.750;48.746;2023-05-09T04:51:28;100713.59;;;7.42;36.45
78986;BME280;68384;55.750;48.746;2023-05-09T04:52:31;100713.78;;;7.30;35.91
78986;BME280;68384;55.750;48.746;2023-05-09T04:53:35;100712.78;;;7.28;37.46
78986;BME280;68384;55.750;48.746;2023-05-09T04:54:39;100713.78;;;7.30;37.49
78986;BME280;68384;55.750;48.746;2023-05-09T04:55:43;100711.34;;;7.33;37.09
78986;BME280;68384;55.750;48.746;2023-05-09T04:56:45;100699.59;;;7.24;38.65
78986;BME280;68384;55.750;48.746;2023-05-09T04:57:52;100707.41;;;7.25;36.73
78986;BME280;68384;55.750;48.746;2023-05-09T04:58:57;100716.88;;;7.25;37.52
78986;BME280;68384;55.750;48.746;2023-05-09T05:00:01;100711.59;;;7.23;36.85
78986;BME280;68384;55.750;48.746;2023-05-09T05:01:04;100714.47;;;7.28;37.57
78986;BME280;68384;55.750;48.746;2023-05-09T05:02:09;100703.97;;;7.25;38.75
78986;BME280;68384;55.750;48.746;2023-05-09T05:03:12;100711.47;;;7.35;38.25
78986;BME280;68384;55.750;48.746;2023-05-09T05:04:17;100699.72;;;7.40;37.81
78986;BME280;68384;55.750;48.746;2023-05-09T05:05:21;100708.78;;;7.48;37.00
78986;BME280;68384;55.750;48.746;2023-05-09T05:06:27;100705.78;;;7.41;37.31
78986;BME280;68384;55.750;48.746;2023-05-09T05:07:31;100713.16;;;7.49;38.08
78986;BME280;68384;55.750;48.746;2023-05-09T05:08:34;100711.75;;;7.54;38.10
78986;BME280;68384;55.750;48.746;2023-05-09T05:09:38;100706.94;;;7.60;37.43
78986;BME280;68384;55.750;48.746;2023-05-09T05:10:42;100695.19;;;7.65;36.70
78986;BME280;68384;55.750;48.746;2023-05-09T05:11:47;100701.84;;;7.76;36.71
78986;BME280;68384;55.750;48.746;2023-05-09T05:13:03;100698.72;;;7.82;36.57
78986;BME280;68384;55.750;48.746;2023-05-09T05:14:09;100710.53;;;7.93;37.52
78986;BME280;68384;55.750;48.746;2023-05-09T05:15:12;100714.09;;;7.95;38.39
78986;BME280;68384;55.750;48.746;2023-05-09T05:16:19;100705.09;;;7.88;37.31
78986;BME280;68384;55.750;48.746;2023-05-09T05:17:22;100703.03;;;7.98;35.06
78986;BME280;68384;55.750;48.746;2023-05-09T05:18:27;100698.22;;;8.04;35.37
78986;BME280;68384;55.750;48.746;2023-05-09T05:19:30;100704.19;;;8.03;34.88
78986;BME280;68384;55.750;48.746;2023-05-09T05:20:36;100703.88;;;8.13;34.34
78986;BME280;68384;55.750;48.746;2023-05-09T05:21:41;100703.34;;;8.18;34.82
78986;BME280;68384;55.750;48.746;2023-05-09T05:22:45;100704.75;;;8.28;35.29
78986;BME280;68384;55.750;48.746;2023-05-09T05:23:48;100700.78;;;8.34;34.45
78986;BME280;68384;55.750;48.746;2023-05-09T05:24:52;100707.19;;;8.41;33.92
78986;BME280;68384;55.750;48.746;2023-05-09T05:25:55;100696.75;;;8.23;35.91
78986;BME280;68384;55.750;48.746;2023-05-09T05:26:59;100701.50;;;8.32;35.83
78986;BME280;68384;55.750;48.746;2023-05-09T05:28:02;100703.97;;;8.29;35.46
78986;BME280;68384;55.750;48.746;2023-05-09T05:29:06;100698.78;;;8.29;35.06
78986;BME280;68384;55.750;48.746;2023-05-09T05:30:10;100701.44;;;8.30;34.67
78986;BME280;68384;55.750;48.746;2023-05-09T05:31:17;100693.94;;;8.35;35.54
78986;BME280;68384;55.750;48.746;2023-05-09T05:32:20;100699.38;;;8.39;35.43
78986;BME280;68384;55.750;48.746;2023-05-09T05:33:24;100706.59;;;8.30;36.73
78986;BME280;68384;55.750;48.746;2023-05-09T05:34:27;100707.03;;;8.38;35.81
78986;BME280;68384;55.750;48.746;2023-05-09T05:35:31;100701.22;;;8.42;37.27
78986;BME280;68384;55.750;48.746;2023-05-09T05:36:36;100703.31;;;8.33;37.09
78986;BME280;68384;55.750;48.746;2023-05-09T05:37:40;100695.63;;;8.34;38.16
78986;BME280;68384;55.750;48.746;2023-05-09T05:38:43;100706.44;;;8.27;37.67
78986;BME280;68384;55.750;48.746;2023-05-09T05:39:48;100697.31;;;8.18;35.78
78986;BME280;68384;55.750;48.746;2023-05-09T05:40:53;100693.56;;;8.13;36.12